createdAt,value
2018-06-30T00:01:24.846Z,9.67
2018-06-30T00:03:54.224Z,8.90
2018-06-30T00:06:24.379Z,8.90
2018-06-30T00:08:53.469Z,8.97
2018-06-30T00:11:22.157Z,8.93
2018-06-30T00:13:50.895Z,9.60
2018-06-30T00:16:20.029Z,8.87
2018-06-30T00:18:48.872Z,7.87
2018-06-30T00:21:17.470Z,8.63
2018-06-30T00:23:46.340Z,8.73
2018-06-30T00:26:15.080Z,8.67
2018-06-30T00:28:44.002Z,8.77
2018-06-30T00:31:13.078Z,8.07
2018-06-30T00:33:41.698Z,8.40
2018-06-30T00:36:09.932Z,8.67
2018-06-30T00:38:39.071Z,7.83
2018-06-30T00:41:07.775Z,9.20
2018-06-30T00:43:36.406Z,8.90
2018-06-30T00:46:05.045Z,9.97
2018-06-30T00:48:33.720Z,9.43
2018-06-30T00:51:02.329Z,8.33
2018-06-30T00:53:31.142Z,8.70
2018-06-30T00:56:00.050Z,8.30
2018-06-30T00:58:28.735Z,9.13
2018-06-30T01:00:59.128Z,8.47
2018-06-30T01:03:29.323Z,9.00
2018-06-30T01:05:58.364Z,9.03
2018-06-30T01:08:26.966Z,8.60
2018-06-30T01:10:55.597Z,10.23
2018-06-30T01:13:24.200Z,9.17
2018-06-30T01:15:52.803Z,10.33
2018-06-30T01:18:21.349Z,8.80
2018-06-30T01:20:50.051Z,9.10
2018-06-30T01:23:18.619Z,8.77
2018-06-30T01:25:47.230Z,7.80
2018-06-30T01:28:15.781Z,8.17
2018-06-30T01:30:44.410Z,8.63
2018-06-30T01:33:12.948Z,8.57
2018-06-30T01:35:41.208Z,8.03
2018-06-30T01:38:10.823Z,8.73
2018-06-30T01:40:39.743Z,8.63
2018-06-30T01:43:08.396Z,10.03
2018-06-30T01:45:37.404Z,8.67
2018-06-30T01:48:06.359Z,9.27
2018-06-30T01:50:34.978Z,9.70
2018-06-30T01:53:03.408Z,10.53
2018-06-30T01:55:31.986Z,9.47
2018-06-30T01:58:00.722Z,8.80
2018-06-30T02:00:28.980Z,8.97
2018-06-30T02:02:57.499Z,8.40
2018-06-30T02:05:25.767Z,8.83
2018-06-30T02:07:54.370Z,9.73
2018-06-30T02:10:23.222Z,9.47
2018-06-30T02:12:51.770Z,9.57
2018-06-30T02:15:20.397Z,8.83
2018-06-30T02:17:49.340Z,9.17
2018-06-30T02:20:17.859Z,8.70
2018-06-30T02:22:46.392Z,8.13
2018-06-30T02:25:14.972Z,8.13
2018-06-30T02:27:43.621Z,8.50
2018-06-30T02:30:12.172Z,8.67
2018-06-30T02:32:40.999Z,8.80
2018-06-30T02:35:09.596Z,8.43
2018-06-30T02:37:38.184Z,9.13
2018-06-30T02:40:07.302Z,8.80
2018-06-30T02:42:35.859Z,9.27
2018-06-30T02:45:04.562Z,9.10
2018-06-30T02:47:33.551Z,9.40
2018-06-30T02:50:02.130Z,9.80
2018-06-30T02:52:30.662Z,9.23
2018-06-30T02:54:59.408Z,9.80
2018-06-30T02:57:27.926Z,8.53
2018-06-30T02:59:56.467Z,9.47
2018-06-30T03:02:25.055Z,9.23
2018-06-30T03:04:53.617Z,9.13
2018-06-30T03:07:22.776Z,9.70
2018-06-30T03:09:51.678Z,9.37
2018-06-30T03:12:20.192Z,9.20
2018-06-30T03:14:48.827Z,8.37
2018-06-30T03:17:17.382Z,8.33
2018-06-30T03:19:46.003Z,8.27
2018-06-30T03:22:14.583Z,8.33
2018-06-30T03:24:43.571Z,8.87
2018-06-30T03:27:12.616Z,8.03
2018-06-30T03:29:41.202Z,8.70
2018-06-30T03:32:09.416Z,8.37
2018-06-30T03:34:38.250Z,8.40
2018-06-30T03:37:06.963Z,8.43
2018-06-30T03:39:35.792Z,7.87
2018-06-30T03:42:04.340Z,9.50
2018-06-30T03:44:32.914Z,8.90
2018-06-30T03:47:01.694Z,9.67
2018-06-30T03:49:30.243Z,9.90
2018-06-30T03:51:58.801Z,8.93
2018-06-30T03:54:27.352Z,9.50
2018-06-30T03:56:56.033Z,8.70
2018-06-30T03:59:24.747Z,9.57
2018-06-30T04:01:53.763Z,9.60
2018-06-30T04:04:22.676Z,9.03
2018-06-30T04:06:51.177Z,9.40
2018-06-30T04:09:19.394Z,9.17
2018-06-30T04:11:47.884Z,8.73
2018-06-30T04:14:16.452Z,8.63
2018-06-30T04:16:45.105Z,9.10
2018-06-30T04:19:15.711Z,9.10
2018-06-30T04:21:45.438Z,9.00
2018-06-30T04:24:14.456Z,8.63
2018-06-30T04:26:43.448Z,9.00
2018-06-30T04:29:12.338Z,8.23
2018-06-30T04:31:40.991Z,8.77
2018-06-30T04:34:09.919Z,8.77
2018-06-30T04:36:38.827Z,8.90
2018-06-30T04:39:09.061Z,9.33
2018-06-30T04:41:38.131Z,8.17
2018-06-30T04:44:06.931Z,8.70
2018-06-30T04:46:36.041Z,8.27
2018-06-30T04:49:04.945Z,8.53
2018-06-30T04:51:33.546Z,8.83
2018-06-30T04:54:02.143Z,8.73
2018-06-30T04:56:30.733Z,8.80
2018-06-30T04:58:59.422Z,9.13
2018-06-30T05:01:27.992Z,9.27
2018-06-30T05:03:56.587Z,8.93
2018-06-30T05:06:25.144Z,9.63
2018-06-30T05:08:54.138Z,9.47
2018-06-30T05:11:22.698Z,8.97
2018-06-30T05:13:52.135Z,8.93
2018-06-30T05:16:20.725Z,9.33
2018-06-30T05:18:49.658Z,10.20
2018-06-30T05:21:18.279Z,8.97
2018-06-30T05:23:46.903Z,9.23
2018-06-30T05:26:15.635Z,9.47
2018-06-30T05:28:44.339Z,11.00
2018-06-30T05:31:13.419Z,9.93
2018-06-30T05:33:42.467Z,10.17
2018-06-30T05:36:11.197Z,11.23
2018-06-30T05:38:39.767Z,10.43
2018-06-30T05:41:08.380Z,11.43
2018-06-30T05:43:36.627Z,10.43
2018-06-30T05:46:05.738Z,11.07
2018-06-30T05:48:34.427Z,12.07
2018-06-30T05:51:03.011Z,11.00
2018-06-30T05:53:32.480Z,11.13
2018-06-30T05:56:01.443Z,10.37
2018-06-30T05:58:30.569Z,11.40
2018-06-30T06:00:59.531Z,10.83
2018-06-30T06:03:28.423Z,10.60
2018-06-30T06:05:57.571Z,10.60
2018-06-30T06:08:26.397Z,11.13
2018-06-30T06:10:55.193Z,11.03
2018-06-30T06:13:24.222Z,10.10
2018-06-30T06:15:53.490Z,11.17
2018-06-30T06:18:22.520Z,10.50
2018-06-30T06:20:51.406Z,10.10
2018-06-30T06:23:20.905Z,10.53
2018-06-30T06:25:49.442Z,10.50
2018-06-30T06:28:18.290Z,10.30
2018-06-30T06:30:46.932Z,11.13
2018-06-30T06:33:15.577Z,10.80
2018-06-30T06:35:44.513Z,10.67
2018-06-30T06:38:13.484Z,10.37
2018-06-30T06:40:42.594Z,10.33
2018-06-30T06:43:11.425Z,10.27
2018-06-30T06:45:40.295Z,10.00
2018-06-30T06:48:09.003Z,10.33
2018-06-30T06:50:38.052Z,10.30
2018-06-30T06:53:07.210Z,10.10
2018-06-30T06:55:35.821Z,9.43
2018-06-30T06:58:04.726Z,9.63
2018-06-30T07:00:33.454Z,9.37
2018-06-30T07:03:02.472Z,9.10
2018-06-30T07:05:31.038Z,9.10
2018-06-30T07:07:59.344Z,9.03
2018-06-30T07:10:28.103Z,8.43
2018-06-30T07:12:56.739Z,8.10
2018-06-30T07:15:26.292Z,9.30
2018-06-30T07:17:54.964Z,7.93
2018-06-30T07:20:23.567Z,8.10
2018-06-30T07:22:52.304Z,8.03
2018-06-30T07:25:21.488Z,7.90
2018-06-30T07:27:50.219Z,8.20
2018-06-30T07:30:18.891Z,8.40
2018-06-30T07:32:47.675Z,7.53
2018-06-30T07:35:16.537Z,6.70
2018-06-30T07:37:45.462Z,6.13
2018-06-30T07:40:14.380Z,6.33
2018-06-30T07:42:43.107Z,5.87
2018-06-30T07:45:12.289Z,5.57
2018-06-30T07:47:40.951Z,4.60
2018-06-30T07:50:09.955Z,5.57
2018-06-30T07:52:38.597Z,5.27
2018-06-30T07:55:07.220Z,5.33
2018-06-30T07:57:36.095Z,5.00
2018-06-30T08:00:04.930Z,4.53
2018-06-30T08:02:33.444Z,4.80
2018-06-30T08:05:02.077Z,4.33
2018-06-30T08:07:30.759Z,4.23
2018-06-30T08:09:59.455Z,4.70
2018-06-30T08:12:28.235Z,4.40
2018-06-30T08:14:56.830Z,4.70
2018-06-30T08:17:25.692Z,4.93
2018-06-30T08:19:54.345Z,4.40
2018-06-30T08:22:23.318Z,4.53
2018-06-30T08:24:51.957Z,4.37
2018-06-30T08:27:20.843Z,4.30
2018-06-30T08:29:50.249Z,4.43
2018-06-30T08:32:18.951Z,4.13
2018-06-30T08:34:47.691Z,4.20
2018-06-30T08:37:16.467Z,3.97
2018-06-30T08:39:45.212Z,3.70
2018-06-30T08:42:13.864Z,4.30
2018-06-30T08:44:42.991Z,4.00
2018-06-30T08:47:11.677Z,4.00
2018-06-30T08:49:40.470Z,4.50
2018-06-30T08:52:08.857Z,3.80
2018-06-30T08:54:37.538Z,4.63
2018-06-30T08:57:06.692Z,3.63
2018-06-30T08:59:35.593Z,3.73
2018-06-30T09:02:04.335Z,4.83
2018-06-30T09:04:32.954Z,4.20
2018-06-30T09:07:01.780Z,3.77
2018-06-30T09:09:30.630Z,3.90
2018-06-30T09:11:59.396Z,3.57
2018-06-30T09:14:29.487Z,4.27
2018-06-30T09:16:57.899Z,3.93
2018-06-30T09:19:26.649Z,4.10
2018-06-30T09:21:56.953Z,4.20
2018-06-30T09:24:25.617Z,4.10
2018-06-30T09:26:54.391Z,3.93
2018-06-30T09:29:23.126Z,4.80
2018-06-30T09:31:51.901Z,3.70
2018-06-30T09:34:21.004Z,4.13
2018-06-30T09:36:49.772Z,4.03
2018-06-30T09:39:18.410Z,3.90
2018-06-30T09:41:47.074Z,3.83
2018-06-30T09:44:15.758Z,3.80
2018-06-30T09:46:44.343Z,3.70
2018-06-30T09:49:13.083Z,3.40
2018-06-30T09:51:42.139Z,3.50
2018-06-30T09:54:11.086Z,4.00
2018-06-30T09:56:39.909Z,3.63
2018-06-30T09:59:08.746Z,3.60
2018-06-30T10:01:37.721Z,3.77
2018-06-30T10:04:06.392Z,3.07
2018-06-30T10:06:35.171Z,3.57
2018-06-30T10:09:06.702Z,3.73
2018-06-30T10:11:35.035Z,3.47
2018-06-30T10:14:03.958Z,2.90
2018-06-30T10:16:32.632Z,3.20
2018-06-30T10:19:01.467Z,3.17
2018-06-30T10:21:29.795Z,2.80
2018-06-30T10:23:58.539Z,3.10
2018-06-30T10:26:27.246Z,2.87
2018-06-30T10:28:56.167Z,3.10
2018-06-30T10:31:24.852Z,3.40
2018-06-30T10:33:53.562Z,3.07
2018-06-30T10:36:23.798Z,2.90
2018-06-30T10:38:52.773Z,4.57
2018-06-30T10:41:21.409Z,3.50
2018-06-30T10:43:50.009Z,3.60
2018-06-30T10:46:18.735Z,3.57
2018-06-30T10:48:47.359Z,3.50
2018-06-30T10:51:16.019Z,3.47
2018-06-30T10:53:44.774Z,3.83
2018-06-30T10:56:13.436Z,3.33
2018-06-30T10:58:42.064Z,3.40
2018-06-30T11:01:10.688Z,3.20
2018-06-30T11:03:39.286Z,2.90
2018-06-30T11:06:07.977Z,3.20
2018-06-30T11:08:36.606Z,3.20
2018-06-30T11:11:05.418Z,3.20
2018-06-30T11:13:34.426Z,3.27
2018-06-30T11:16:03.176Z,3.73
2018-06-30T11:18:31.928Z,3.07
2018-06-30T11:21:01.110Z,3.07
2018-06-30T11:23:29.784Z,3.37
2018-06-30T11:25:58.679Z,3.23
2018-06-30T11:28:27.701Z,2.93
2018-06-30T11:30:56.331Z,2.83
2018-06-30T11:33:25.020Z,3.17
2018-06-30T11:35:54.604Z,2.73
2018-06-30T11:38:23.235Z,3.03
2018-06-30T11:40:52.404Z,2.87
2018-06-30T11:43:21.400Z,3.03
2018-06-30T11:45:49.884Z,3.00
2018-06-30T11:48:18.271Z,3.10
2018-06-30T11:50:47.604Z,2.77
2018-06-30T11:53:16.545Z,3.40
2018-06-30T11:55:45.604Z,2.90
2018-06-30T11:58:14.296Z,2.47
2018-06-30T12:00:43.351Z,3.13
2018-06-30T12:03:11.927Z,2.90
2018-06-30T12:05:40.643Z,2.80
2018-06-30T12:08:09.272Z,2.53
2018-06-30T12:10:38.575Z,2.80
2018-06-30T12:13:07.221Z,2.83
2018-06-30T12:15:36.129Z,3.00
2018-06-30T12:18:05.652Z,3.13
2018-06-30T12:20:34.640Z,2.90
2018-06-30T12:23:03.307Z,2.73
2018-06-30T12:25:31.890Z,2.90
2018-06-30T12:28:01.042Z,3.20
2018-06-30T12:30:29.659Z,3.27
2018-06-30T12:32:58.252Z,3.03
2018-06-30T12:35:26.785Z,2.90
2018-06-30T12:37:55.554Z,3.00
2018-06-30T12:40:24.215Z,3.13
2018-06-30T12:42:52.996Z,3.77
2018-06-30T12:45:21.665Z,3.57
2018-06-30T12:47:50.351Z,3.50
2018-06-30T12:50:19.293Z,3.00
2018-06-30T12:52:48.106Z,3.50
2018-06-30T12:55:16.868Z,3.60
2018-06-30T12:57:45.744Z,3.30
2018-06-30T13:00:14.578Z,3.27
2018-06-30T13:02:43.736Z,3.63
2018-06-30T13:05:12.371Z,3.47
2018-06-30T13:07:41.075Z,3.23
2018-06-30T13:10:10.175Z,3.33
2018-06-30T13:12:38.907Z,3.47
2018-06-30T13:15:07.544Z,3.40
2018-06-30T13:17:36.396Z,3.93
2018-06-30T13:20:05.751Z,3.53
2018-06-30T13:22:34.295Z,3.43
2018-06-30T13:25:02.975Z,3.40
2018-06-30T13:27:31.791Z,3.67
2018-06-30T13:30:00.600Z,3.30
2018-06-30T13:32:29.237Z,3.47
2018-06-30T13:34:58.306Z,4.13
2018-06-30T13:37:27.014Z,4.00
2018-06-30T13:39:56.005Z,3.87
2018-06-30T13:42:25.135Z,3.30
2018-06-30T13:44:54.208Z,3.60
2018-06-30T13:47:23.208Z,3.70
2018-06-30T13:49:51.793Z,3.47
2018-06-30T13:52:20.676Z,3.40
2018-06-30T13:54:49.343Z,3.33
2018-06-30T13:57:19.407Z,3.67
2018-06-30T13:59:48.931Z,3.70
2018-06-30T14:02:17.596Z,3.60
2018-06-30T14:04:46.138Z,3.43
2018-06-30T14:07:14.804Z,3.57
2018-06-30T14:09:43.404Z,3.50
2018-06-30T14:12:12.215Z,3.43
2018-06-30T14:14:40.882Z,3.73
2018-06-30T14:17:09.460Z,3.97
2018-06-30T14:19:38.048Z,3.97
2018-06-30T14:22:07.108Z,3.50
2018-06-30T14:24:36.049Z,3.90
2018-06-30T14:27:04.821Z,3.50
2018-06-30T14:29:33.062Z,3.93
2018-06-30T14:32:01.752Z,4.33
2018-06-30T14:34:30.400Z,3.40
2018-06-30T14:36:59.064Z,3.50
2018-06-30T14:39:27.665Z,3.67
2018-06-30T14:41:56.641Z,4.37
2018-06-30T14:44:28.392Z,3.73
2018-06-30T14:46:57.112Z,3.93
2018-06-30T14:49:25.680Z,3.33
2018-06-30T14:51:54.351Z,3.63
2018-06-30T14:54:22.939Z,3.60
2018-06-30T14:56:51.621Z,3.77
2018-06-30T14:59:20.718Z,4.13
2018-06-30T15:01:49.872Z,3.10
2018-06-30T15:04:18.524Z,3.60
2018-06-30T15:06:47.143Z,4.10
2018-06-30T15:09:16.423Z,3.70
2018-06-30T15:11:45.875Z,3.67
2018-06-30T15:14:16.015Z,3.87
2018-06-30T15:16:44.558Z,3.63
2018-06-30T15:19:13.504Z,4.23
2018-06-30T15:21:42.256Z,3.67
2018-06-30T15:24:10.780Z,3.30
2018-06-30T15:26:39.407Z,3.53
2018-06-30T15:29:07.981Z,3.40
2018-06-30T15:31:36.633Z,4.00
2018-06-30T15:34:05.406Z,4.47
2018-06-30T15:36:34.382Z,5.30
2018-06-30T15:39:03.051Z,4.90
2018-06-30T15:41:32.060Z,4.27
2018-06-30T15:44:00.640Z,4.13
2018-06-30T15:46:29.226Z,4.00
2018-06-30T15:48:57.757Z,3.60
2018-06-30T15:51:26.344Z,4.00
2018-06-30T15:53:55.075Z,3.53
2018-06-30T15:56:23.585Z,3.77
2018-06-30T15:58:52.211Z,3.80
2018-06-30T16:01:21.459Z,3.40
2018-06-30T16:03:50.050Z,4.27
2018-06-30T16:06:18.639Z,3.83
2018-06-30T16:08:47.172Z,3.43
2018-06-30T16:11:15.783Z,3.57
2018-06-30T16:13:44.851Z,3.50
2018-06-30T16:16:13.809Z,3.60
2018-06-30T16:18:42.363Z,4.10
2018-06-30T16:21:12.419Z,4.37
2018-06-30T16:23:41.111Z,3.77
2018-06-30T16:26:10.026Z,3.57
2018-06-30T16:28:38.738Z,4.17
2018-06-30T16:31:08.095Z,4.10
2018-06-30T16:33:37.050Z,4.63
2018-06-30T16:36:05.732Z,3.93
2018-06-30T16:38:34.062Z,4.10
2018-06-30T16:41:02.656Z,3.90
2018-06-30T16:43:31.336Z,3.70
2018-06-30T16:45:59.895Z,4.07
2018-06-30T16:48:29.363Z,4.23
2018-06-30T16:50:58.255Z,3.93
2018-06-30T16:53:26.819Z,3.67
2018-06-30T16:55:55.476Z,3.90
2018-06-30T16:58:24.048Z,4.50
2018-06-30T17:00:52.627Z,3.87
2018-06-30T17:03:21.235Z,4.00
2018-06-30T17:05:50.068Z,4.47
2018-06-30T17:08:19.178Z,4.20
2018-06-30T17:10:47.768Z,4.73
2018-06-30T17:13:16.300Z,4.20
2018-06-30T17:15:45.013Z,3.60
2018-06-30T17:18:13.341Z,3.90
2018-06-30T17:20:42.098Z,4.20
2018-06-30T17:23:10.719Z,4.17
2018-06-30T17:25:39.280Z,4.47
2018-06-30T17:28:07.935Z,3.93
2018-06-30T17:30:36.714Z,4.00
2018-06-30T17:33:05.754Z,3.87
2018-06-30T17:35:34.990Z,3.63
2018-06-30T17:38:03.883Z,4.30
2018-06-30T17:40:32.479Z,4.23
2018-06-30T17:43:00.699Z,3.87
2018-06-30T17:45:29.283Z,4.10
2018-06-30T17:47:58.528Z,3.73
2018-06-30T17:50:27.552Z,3.67
2018-06-30T17:52:56.124Z,3.53
2018-06-30T17:55:24.859Z,3.50
2018-06-30T17:57:53.763Z,3.53
2018-06-30T18:00:22.843Z,4.03
2018-06-30T18:02:51.594Z,3.80
2018-06-30T18:05:20.388Z,3.50
2018-06-30T18:07:49.107Z,3.50
2018-06-30T18:10:18.122Z,3.47
2018-06-30T18:12:47.004Z,3.40
2018-06-30T18:15:16.086Z,3.50
2018-06-30T18:17:45.462Z,3.63
2018-06-30T18:20:14.291Z,3.43
2018-06-30T18:22:43.032Z,3.53
2018-06-30T18:25:11.658Z,3.20
2018-06-30T18:27:40.346Z,3.50
2018-06-30T18:30:09.440Z,3.40
2018-06-30T18:32:38.126Z,3.13
2018-06-30T18:35:07.387Z,2.87
2018-06-30T18:37:36.084Z,2.90
2018-06-30T18:40:05.377Z,3.60
2018-06-30T18:42:34.468Z,3.60
2018-06-30T18:45:03.272Z,3.40
2018-06-30T18:47:32.002Z,3.50
2018-06-30T18:50:00.773Z,3.20
2018-06-30T18:52:29.509Z,2.90
2018-06-30T18:54:58.553Z,3.47
2018-06-30T18:57:27.253Z,2.80
2018-06-30T18:59:55.953Z,3.00
2018-06-30T19:02:24.679Z,2.80
2018-06-30T19:04:53.316Z,2.97
2018-06-30T19:07:22.415Z,2.80
2018-06-30T19:09:50.967Z,2.93
2018-06-30T19:12:20.352Z,2.57
2018-06-30T19:14:49.437Z,2.80
2018-06-30T19:17:18.054Z,2.50
2018-06-30T19:19:46.861Z,3.17
2018-06-30T19:22:15.445Z,2.70
2018-06-30T19:24:44.179Z,2.97
2018-06-30T19:27:12.822Z,2.70
2018-06-30T19:29:41.885Z,2.20
2018-06-30T19:32:10.521Z,2.47
2018-06-30T19:34:39.088Z,2.50
2018-06-30T19:37:07.859Z,2.20
2018-06-30T19:39:36.766Z,2.47
2018-06-30T19:42:05.659Z,2.10
2018-06-30T19:44:34.446Z,2.73
2018-06-30T19:47:03.083Z,2.47
2018-06-30T19:49:31.682Z,2.60
2018-06-30T19:52:00.695Z,2.70
2018-06-30T19:54:29.604Z,2.63
2018-06-30T19:56:58.308Z,2.60
2018-06-30T19:59:27.566Z,2.90
2018-06-30T20:01:56.115Z,2.60
2018-06-30T20:04:24.982Z,2.40
2018-06-30T20:06:53.815Z,2.30
2018-06-30T20:09:22.826Z,2.00
2018-06-30T20:11:51.535Z,2.00
2018-06-30T20:14:20.324Z,2.67
2018-06-30T20:16:48.927Z,2.00
2018-06-30T20:19:17.436Z,2.40
2018-06-30T20:21:46.162Z,2.57
2018-06-30T20:24:15.106Z,2.23
2018-06-30T20:26:43.648Z,2.40
2018-06-30T20:29:12.272Z,2.30
2018-06-30T20:31:40.819Z,2.03
2018-06-30T20:34:09.574Z,2.37
2018-06-30T20:36:38.189Z,2.17
2018-06-30T20:39:08.523Z,1.90
2018-06-30T20:41:38.006Z,1.80
2018-06-30T20:44:06.682Z,2.67
2018-06-30T20:46:49.820Z,2.03
2018-06-30T20:49:18.535Z,2.37
2018-06-30T20:51:47.149Z,2.40
2018-06-30T20:54:15.847Z,2.30
2018-06-30T20:56:44.427Z,1.97
2018-06-30T20:59:13.013Z,2.40
2018-06-30T21:01:41.696Z,2.07
2018-06-30T21:04:10.503Z,3.13
2018-06-30T21:06:39.663Z,2.37
2018-06-30T21:09:09.715Z,2.00
2018-06-30T21:11:38.779Z,2.00
2018-06-30T21:14:07.489Z,1.87
2018-06-30T21:16:36.071Z,1.70
2018-06-30T21:19:04.829Z,2.00
2018-06-30T21:21:34.122Z,1.80
2018-06-30T21:24:02.811Z,1.67
2018-06-30T21:26:31.442Z,1.80
2018-06-30T21:28:59.977Z,1.50
2018-06-30T21:31:28.777Z,1.60
2018-06-30T21:33:57.459Z,1.50
2018-06-30T21:36:26.659Z,1.30
2018-06-30T21:38:55.521Z,1.30
2018-06-30T21:41:24.510Z,1.60
2018-06-30T21:43:53.886Z,1.23
2018-06-30T21:46:22.722Z,1.43
2018-06-30T21:48:51.623Z,1.37
2018-06-30T21:51:20.261Z,1.40
2018-06-30T21:53:49.324Z,1.43
2018-06-30T21:56:17.962Z,1.23
2018-06-30T21:58:46.599Z,1.53
2018-06-30T22:01:20.333Z,1.43
2018-06-30T22:03:49.087Z,1.40
2018-06-30T22:06:17.961Z,1.60
2018-06-30T22:08:46.479Z,1.40
2018-06-30T22:11:15.271Z,1.10
2018-06-30T22:13:44.072Z,1.57
2018-06-30T22:16:12.628Z,1.50
2018-06-30T22:18:41.961Z,1.40
2018-06-30T22:21:10.955Z,1.70
2018-06-30T22:23:40.133Z,1.50
2018-06-30T22:26:08.713Z,1.20
2018-06-30T22:28:37.248Z,1.20
2018-06-30T22:31:05.840Z,1.40
2018-06-30T22:33:34.385Z,1.30
2018-06-30T22:36:02.989Z,1.20
2018-06-30T22:38:31.520Z,1.10
2018-06-30T22:41:00.034Z,1.00
2018-06-30T22:43:29.011Z,1.37
2018-06-30T22:45:57.555Z,1.23
2018-06-30T22:48:26.845Z,1.50
2018-06-30T22:50:55.428Z,1.37
2018-06-30T22:53:23.834Z,1.63
2018-06-30T22:55:52.110Z,1.47
2018-06-30T22:58:20.679Z,1.70
2018-06-30T23:00:49.242Z,1.27
2018-06-30T23:03:18.313Z,1.20
2018-06-30T23:05:47.409Z,1.37
2018-06-30T23:08:15.999Z,1.53
2018-06-30T23:10:45.074Z,1.50
2018-06-30T23:13:13.597Z,1.30
2018-06-30T23:15:42.134Z,1.70
2018-06-30T23:18:10.898Z,1.20
2018-06-30T23:20:39.429Z,1.13
2018-06-30T23:23:09.182Z,1.37
2018-06-30T23:25:38.331Z,2.00
2018-06-30T23:28:07.236Z,1.63
2018-06-30T23:30:36.363Z,1.40
2018-06-30T23:33:05.006Z,1.30
2018-06-30T23:35:34.262Z,1.40
2018-06-30T23:38:03.576Z,1.87
2018-06-30T23:40:32.218Z,1.87
2018-06-30T23:43:00.751Z,1.40
2018-06-30T23:45:29.711Z,1.20
2018-06-30T23:47:58.293Z,1.47
2018-06-30T23:50:26.590Z,1.27
2018-06-30T23:52:55.256Z,1.17
2018-06-30T23:55:23.880Z,1.30
2018-06-30T23:57:52.515Z,1.53
